sensor_id;sensor_type;location;lat;lon;timestamp;P1;durP1;ratioP1;P2;durP2;ratioP2
13238;SDS011;6686;51.292;4.166;2023-07-09T00:00:40;18.67;;;16.77;;
13238;SDS011;6686;51.292;4.166;2023-07-09T00:03:26;17.03;;;15.30;;
13238;SDS011;6686;51.292;4.166;2023-07-09T00:06:13;16.27;;;13.47;;
13238;SDS011;6686;51.292;4.166;2023-07-09T00:08:58;16.53;;;13.47;;
13238;SDS011;6686;51.292;4.166;2023-07-09T00:11:44;14.50;;;12.97;;
13238;SDS011;6686;51.292;4.166;2023-07-09T00:14:30;14.73;;;12.93;;
13238;SDS011;6686;51.292;4.166;2023-07-09T00:17:29;17.25;;;13.75;;
13238;SDS011;6686;51.292;4.166;2023-07-09T00:20:15;14.70;;;13.00;;
13238;SDS011;6686;51.292;4.166;2023-07-09T00:23:00;15.70;;;13.07;;
13238;SDS011;6686;51.292;4.166;2023-07-09T00:25:46;16.90;;;13.87;;
13238;SDS011;6686;51.292;4.166;2023-07-09T00:28:31;15.15;;;12.82;;
13238;SDS011;6686;51.292;4.166;2023-07-09T00:31:17;15.60;;;13.30;;
13238;SDS011;6686;51.292;4.166;2023-07-09T00:34:03;14.43;;;12.90;;
13238;SDS011;6686;51.292;4.166;2023-07-09T00:36:49;15.05;;;12.90;;
13238;SDS011;6686;51.292;4.166;2023-07-09T00:39:35;14.95;;;12.40;;
13238;SDS011;6686;51.292;4.166;2023-07-09T00:42:21;14.75;;;12.52;;
13238;SDS011;6686;51.292;4.166;2023-07-09T00:45:07;13.20;;;11.90;;
13238;SDS011;6686;51.292;4.166;2023-07-09T00:50:41;15.00;;;13.27;;
13238;SDS011;6686;51.292;4.166;2023-07-09T00:53:28;15.43;;;12.90;;
13238;SDS011;6686;51.292;4.166;2023-07-09T00:56:46;14.35;;;11.55;;
13238;SDS011;6686;51.292;4.166;2023-07-09T00:59:10;12.48;;;11.15;;
13238;SDS011;6686;51.292;4.166;2023-07-09T01:01:56;11.77;;;10.52;;
13238;SDS011;6686;51.292;4.166;2023-07-09T01:04:42;14.65;;;10.57;;
13238;SDS011;6686;51.292;4.166;2023-07-09T01:07:28;16.00;;;11.23;;
13238;SDS011;6686;51.292;4.166;2023-07-09T01:10:15;14.82;;;11.38;;
13238;SDS011;6686;51.292;4.166;2023-07-09T01:12:59;12.70;;;11.27;;
13238;SDS011;6686;51.292;4.166;2023-07-09T01:15:45;14.43;;;12.55;;
13238;SDS011;6686;51.292;4.166;2023-07-09T01:18:31;13.57;;;12.15;;
13238;SDS011;6686;51.292;4.166;2023-07-09T01:21:16;12.02;;;10.73;;
13238;SDS011;6686;51.292;4.166;2023-07-09T01:24:12;11.73;;;10.63;;
13238;SDS011;6686;51.292;4.166;2023-07-09T01:26:57;11.90;;;9.73;;
13238;SDS011;6686;51.292;4.166;2023-07-09T01:29:43;12.05;;;10.80;;
13238;SDS011;6686;51.292;4.166;2023-07-09T01:32:29;11.35;;;10.13;;
13238;SDS011;6686;51.292;4.166;2023-07-09T01:35:16;11.25;;;9.02;;
13238;SDS011;6686;51.292;4.166;2023-07-09T01:38:00;12.27;;;9.52;;
13238;SDS011;6686;51.292;4.166;2023-07-09T01:40:46;10.93;;;8.77;;
13238;SDS011;6686;51.292;4.166;2023-07-09T01:43:32;10.30;;;9.20;;
13238;SDS011;6686;51.292;4.166;2023-07-09T01:46:18;10.52;;;9.32;;
13238;SDS011;6686;51.292;4.166;2023-07-09T01:49:04;10.20;;;9.20;;
13238;SDS011;6686;51.292;4.166;2023-07-09T01:51:50;9.98;;;8.60;;
13238;SDS011;6686;51.292;4.166;2023-07-09T01:54:35;12.65;;;9.43;;
13238;SDS011;6686;51.292;4.166;2023-07-09T01:57:27;10.30;;;9.20;;
13238;SDS011;6686;51.292;4.166;2023-07-09T02:00:19;17.35;;;12.93;;
13238;SDS011;6686;51.292;4.166;2023-07-09T02:03:05;16.67;;;14.98;;
13238;SDS011;6686;51.292;4.166;2023-07-09T02:05:54;18.20;;;15.82;;
13238;SDS011;6686;51.292;4.166;2023-07-09T02:08:39;16.30;;;14.53;;
13238;SDS011;6686;51.292;4.166;2023-07-09T02:11:26;19.60;;;14.63;;
13238;SDS011;6686;51.292;4.166;2023-07-09T02:14:12;16.47;;;14.13;;
13238;SDS011;6686;51.292;4.166;2023-07-09T02:16:58;20.33;;;16.00;;
13238;SDS011;6686;51.292;4.166;2023-07-09T02:19:44;16.80;;;15.00;;
13238;SDS011;6686;51.292;4.166;2023-07-09T02:22:30;17.45;;;15.60;;
13238;SDS011;6686;51.292;4.166;2023-07-09T02:25:16;16.73;;;15.03;;
13238;SDS011;6686;51.292;4.166;2023-07-09T02:28:02;19.93;;;17.83;;
13238;SDS011;6686;51.292;4.166;2023-07-09T02:30:48;21.03;;;18.60;;
13238;SDS011;6686;51.292;4.166;2023-07-09T02:33:34;24.00;;;21.57;;
13238;SDS011;6686;51.292;4.166;2023-07-09T02:36:20;25.58;;;23.08;;
13238;SDS011;6686;51.292;4.166;2023-07-09T02:39:06;27.03;;;24.13;;
13238;SDS011;6686;51.292;4.166;2023-07-09T02:41:52;26.07;;;23.03;;
13238;SDS011;6686;51.292;4.166;2023-07-09T02:44:38;27.13;;;24.33;;
13238;SDS011;6686;51.292;4.166;2023-07-09T02:47:24;30.08;;;27.10;;
13238;SDS011;6686;51.292;4.166;2023-07-09T02:50:10;26.40;;;23.80;;
13238;SDS011;6686;51.292;4.166;2023-07-09T02:52:56;29.07;;;24.10;;
13238;SDS011;6686;51.292;4.166;2023-07-09T02:55:42;26.87;;;23.17;;
13238;SDS011;6686;51.292;4.166;2023-07-09T02:58:28;28.83;;;24.63;;
13238;SDS011;6686;51.292;4.166;2023-07-09T03:01:13;30.43;;;27.13;;
13238;SDS011;6686;51.292;4.166;2023-07-09T03:03:59;32.80;;;29.47;;
13238;SDS011;6686;51.292;4.166;2023-07-09T03:06:45;34.23;;;30.50;;
13238;SDS011;6686;51.292;4.166;2023-07-09T03:09:30;32.27;;;28.97;;
13238;SDS011;6686;51.292;4.166;2023-07-09T03:12:17;28.30;;;25.37;;
13238;SDS011;6686;51.292;4.166;2023-07-09T03:15:02;30.27;;;24.40;;
13238;SDS011;6686;51.292;4.166;2023-07-09T03:17:49;29.07;;;26.13;;
13238;SDS011;6686;51.292;4.166;2023-07-09T03:20:34;31.13;;;27.97;;
13238;SDS011;6686;51.292;4.166;2023-07-09T03:23:20;33.17;;;29.67;;
13238;SDS011;6686;51.292;4.166;2023-07-09T03:26:07;30.53;;;27.33;;
13238;SDS011;6686;51.292;4.166;2023-07-09T03:28:53;31.30;;;27.13;;
13238;SDS011;6686;51.292;4.166;2023-07-09T03:31:39;34.63;;;29.63;;
13238;SDS011;6686;51.292;4.166;2023-07-09T03:34:25;36.50;;;29.87;;
13238;SDS011;6686;51.292;4.166;2023-07-09T03:37:10;31.23;;;27.90;;
13238;SDS011;6686;51.292;4.166;2023-07-09T03:39:56;31.37;;;27.97;;
13238;SDS011;6686;51.292;4.166;2023-07-09T03:42:42;35.40;;;31.87;;
13238;SDS011;6686;51.292;4.166;2023-07-09T03:45:28;31.63;;;28.23;;
13238;SDS011;6686;51.292;4.166;2023-07-09T03:48:15;33.77;;;29.57;;
13238;SDS011;6686;51.292;4.166;2023-07-09T03:51:00;37.90;;;28.03;;
13238;SDS011;6686;51.292;4.166;2023-07-09T03:53:46;29.10;;;25.87;;
13238;SDS011;6686;51.292;4.166;2023-07-09T03:56:31;28.70;;;25.57;;
13238;SDS011;6686;51.292;4.166;2023-07-09T03:59:17;31.53;;;27.97;;
13238;SDS011;6686;51.292;4.166;2023-07-09T04:02:03;32.90;;;29.13;;
13238;SDS011;6686;51.292;4.166;2023-07-09T04:04:49;34.10;;;30.67;;
13238;SDS011;6686;51.292;4.166;2023-07-09T04:07:35;32.00;;;27.40;;
13238;SDS011;6686;51.292;4.166;2023-07-09T04:10:21;31.07;;;27.23;;
13238;SDS011;6686;51.292;4.166;2023-07-09T04:13:07;33.25;;;29.85;;
13238;SDS011;6686;51.292;4.166;2023-07-09T04:15:54;30.40;;;26.50;;
13238;SDS011;6686;51.292;4.166;2023-07-09T04:18:39;27.97;;;25.07;;
13238;SDS011;6686;51.292;4.166;2023-07-09T04:21:25;27.63;;;24.73;;
13238;SDS011;6686;51.292;4.166;2023-07-09T04:24:11;29.10;;;23.90;;
13238;SDS011;6686;51.292;4.166;2023-07-09T04:26:57;29.10;;;25.23;;
13238;SDS011;6686;51.292;4.166;2023-07-09T04:29:43;25.13;;;22.37;;
13238;SDS011;6686;51.292;4.166;2023-07-09T04:32:29;31.20;;;25.43;;
13238;SDS011;6686;51.292;4.166;2023-07-09T04:35:15;27.83;;;24.60;;
13238;SDS011;6686;51.292;4.166;2023-07-09T04:38:01;26.30;;;23.60;;
13238;SDS011;6686;51.292;4.166;2023-07-09T04:40:47;27.43;;;24.43;;
13238;SDS011;6686;51.292;4.166;2023-07-09T04:43:33;27.07;;;24.27;;
13238;SDS011;6686;51.292;4.166;2023-07-09T04:46:19;29.33;;;26.23;;
13238;SDS011;6686;51.292;4.166;2023-07-09T04:49:04;32.50;;;29.03;;
13238;SDS011;6686;51.292;4.166;2023-07-09T04:51:50;28.33;;;25.37;;
13238;SDS011;6686;51.292;4.166;2023-07-09T04:54:37;32.63;;;27.83;;
13238;SDS011;6686;51.292;4.166;2023-07-09T04:57:22;39.13;;;33.13;;
13238;SDS011;6686;51.292;4.166;2023-07-09T05:00:08;34.43;;;30.70;;
13238;SDS011;6686;51.292;4.166;2023-07-09T05:02:53;38.20;;;34.10;;
13238;SDS011;6686;51.292;4.166;2023-07-09T05:05:43;36.87;;;32.80;;
13238;SDS011;6686;51.292;4.166;2023-07-09T05:08:28;33.93;;;30.27;;
13238;SDS011;6686;51.292;4.166;2023-07-09T05:11:14;37.90;;;33.90;;
13238;SDS011;6686;51.292;4.166;2023-07-09T05:14:00;37.17;;;30.70;;
13238;SDS011;6686;51.292;4.166;2023-07-09T05:16:46;41.10;;;34.90;;
13238;SDS011;6686;51.292;4.166;2023-07-09T05:19:32;37.88;;;34.10;;
13238;SDS011;6686;51.292;4.166;2023-07-09T05:22:18;37.03;;;32.10;;
13238;SDS011;6686;51.292;4.166;2023-07-09T05:25:04;34.60;;;30.70;;
13238;SDS011;6686;51.292;4.166;2023-07-09T05:27:50;34.40;;;30.77;;
13238;SDS011;6686;51.292;4.166;2023-07-09T05:30:36;32.17;;;28.77;;
13238;SDS011;6686;51.292;4.166;2023-07-09T05:33:22;37.43;;;30.73;;
13238;SDS011;6686;51.292;4.166;2023-07-09T05:36:08;34.03;;;30.47;;
13238;SDS011;6686;51.292;4.166;2023-07-09T05:38:54;31.20;;;27.80;;
13238;SDS011;6686;51.292;4.166;2023-07-09T05:41:39;38.35;;;34.42;;
13238;SDS011;6686;51.292;4.166;2023-07-09T05:44:25;34.05;;;30.37;;
13238;SDS011;6686;51.292;4.166;2023-07-09T05:47:11;32.80;;;29.40;;
13238;SDS011;6686;51.292;4.166;2023-07-09T05:49:56;35.72;;;29.20;;
13238;SDS011;6686;51.292;4.166;2023-07-09T05:52:52;33.10;;;29.33;;
13238;SDS011;6686;51.292;4.166;2023-07-09T05:55:35;30.98;;;27.77;;
13238;SDS011;6686;51.292;4.166;2023-07-09T05:58:20;30.17;;;26.58;;
13238;SDS011;6686;51.292;4.166;2023-07-09T06:01:06;30.73;;;27.45;;
13238;SDS011;6686;51.292;4.166;2023-07-09T06:03:52;28.67;;;24.77;;
13238;SDS011;6686;51.292;4.166;2023-07-09T06:06:38;31.42;;;28.05;;
13238;SDS011;6686;51.292;4.166;2023-07-09T06:09:24;30.92;;;26.23;;
13238;SDS011;6686;51.292;4.166;2023-07-09T06:12:10;28.73;;;25.70;;
13238;SDS011;6686;51.292;4.166;2023-07-09T06:14:56;27.73;;;24.80;;
13238;SDS011;6686;51.292;4.166;2023-07-09T06:17:42;26.48;;;23.73;;
13238;SDS011;6686;51.292;4.166;2023-07-09T06:20:28;28.70;;;25.70;;
13238;SDS011;6686;51.292;4.166;2023-07-09T06:23:14;29.95;;;26.98;;
13238;SDS011;6686;51.292;4.166;2023-07-09T06:25:59;31.55;;;28.23;;
13238;SDS011;6686;51.292;4.166;2023-07-09T06:28:45;28.30;;;25.58;;
13238;SDS011;6686;51.292;4.166;2023-07-09T06:31:31;26.50;;;23.75;;
13238;SDS011;6686;51.292;4.166;2023-07-09T06:34:17;28.50;;;25.52;;
13238;SDS011;6686;51.292;4.166;2023-07-09T06:37:03;26.30;;;23.50;;
13238;SDS011;6686;51.292;4.166;2023-07-09T06:39:49;26.37;;;23.65;;
13238;SDS011;6686;51.292;4.166;2023-07-09T06:42:35;25.60;;;22.60;;
13238;SDS011;6686;51.292;4.166;2023-07-09T06:45:20;27.98;;;23.62;;
13238;SDS011;6686;51.292;4.166;2023-07-09T06:48:06;23.27;;;20.88;;
13238;SDS011;6686;51.292;4.166;2023-07-09T06:50:53;21.92;;;19.73;;
13238;SDS011;6686;51.292;4.166;2023-07-09T06:53:38;22.85;;;19.27;;
13238;SDS011;6686;51.292;4.166;2023-07-09T06:56:24;22.83;;;18.70;;
13238;SDS011;6686;51.292;4.166;2023-07-09T06:59:10;16.45;;;14.77;;
13238;SDS011;6686;51.292;4.166;2023-07-09T07:01:56;16.00;;;14.10;;
13238;SDS011;6686;51.292;4.166;2023-07-09T07:04:42;16.12;;;14.52;;
13238;SDS011;6686;51.292;4.166;2023-07-09T07:07:28;14.02;;;12.57;;
13238;SDS011;6686;51.292;4.166;2023-07-09T07:10:14;12.45;;;10.82;;
13238;SDS011;6686;51.292;4.166;2023-07-09T07:13:00;14.10;;;11.10;;
13238;SDS011;6686;51.292;4.166;2023-07-09T07:15:48;13.88;;;9.90;;
13238;SDS011;6686;51.292;4.166;2023-07-09T07:18:31;12.48;;;8.73;;
13238;SDS011;6686;51.292;4.166;2023-07-09T07:21:17;8.75;;;7.18;;
13238;SDS011;6686;51.292;4.166;2023-07-09T07:24:04;10.43;;;7.25;;
13238;SDS011;6686;51.292;4.166;2023-07-09T07:26:50;12.10;;;8.43;;
13238;SDS011;6686;51.292;4.166;2023-07-09T07:29:36;7.87;;;7.07;;
13238;SDS011;6686;51.292;4.166;2023-07-09T07:32:21;8.80;;;7.65;;
13238;SDS011;6686;51.292;4.166;2023-07-09T07:35:07;10.10;;;7.45;;
13238;SDS011;6686;51.292;4.166;2023-07-09T07:37:53;7.22;;;5.90;;
13238;SDS011;6686;51.292;4.166;2023-07-09T07:40:43;7.57;;;5.68;;
13238;SDS011;6686;51.292;4.166;2023-07-09T07:43:25;9.40;;;6.65;;
13238;SDS011;6686;51.292;4.166;2023-07-09T07:46:11;9.50;;;6.62;;
13238;SDS011;6686;51.292;4.166;2023-07-09T07:48:57;8.70;;;5.87;;
13238;SDS011;6686;51.292;4.166;2023-07-09T07:51:43;8.80;;;5.68;;
13238;SDS011;6686;51.292;4.166;2023-07-09T07:54:30;8.25;;;5.70;;
13238;SDS011;6686;51.292;4.166;2023-07-09T07:57:19;8.85;;;5.85;;
13238;SDS011;6686;51.292;4.166;2023-07-09T08:00:05;8.70;;;5.60;;
13238;SDS011;6686;51.292;4.166;2023-07-09T08:02:51;9.40;;;5.37;;
13238;SDS011;6686;51.292;4.166;2023-07-09T08:05:37;7.47;;;5.25;;
13238;SDS011;6686;51.292;4.166;2023-07-09T08:08:23;8.30;;;5.35;;
13238;SDS011;6686;51.292;4.166;2023-07-09T08:11:09;8.18;;;5.37;;
13238;SDS011;6686;51.292;4.166;2023-07-09T08:13:55;5.87;;;4.68;;
13238;SDS011;6686;51.292;4.166;2023-07-09T08:16:40;5.60;;;4.55;;
13238;SDS011;6686;51.292;4.166;2023-07-09T08:19:26;7.55;;;3.75;;
13238;SDS011;6686;51.292;4.166;2023-07-09T08:22:12;5.43;;;3.87;;
13238;SDS011;6686;51.292;4.166;2023-07-09T08:24:58;5.62;;;3.55;;
13238;SDS011;6686;51.292;4.166;2023-07-09T08:27:44;5.12;;;3.25;;
13238;SDS011;6686;51.292;4.166;2023-07-09T08:30:30;4.57;;;3.55;;
13238;SDS011;6686;51.292;4.166;2023-07-09T08:33:16;7.03;;;3.60;;
13238;SDS011;6686;51.292;4.166;2023-07-09T08:36:02;8.05;;;4.30;;
13238;SDS011;6686;51.292;4.166;2023-07-09T08:38:48;4.82;;;3.00;;
13238;SDS011;6686;51.292;4.166;2023-07-09T08:41:45;4.55;;;3.50;;
13238;SDS011;6686;51.292;4.166;2023-07-09T08:44:44;4.35;;;3.75;;
13238;SDS011;6686;51.292;4.166;2023-07-09T08:50:21;5.12;;;3.37;;
13238;SDS011;6686;51.292;4.166;2023-07-09T08:53:09;6.00;;;4.07;;
13238;SDS011;6686;51.292;4.166;2023-07-09T08:55:53;7.72;;;4.43;;
13238;SDS011;6686;51.292;4.166;2023-07-09T08:58:39;5.62;;;4.65;;
13238;SDS011;6686;51.292;4.166;2023-07-09T09:01:28;5.72;;;4.85;;
13238;SDS011;6686;51.292;4.166;2023-07-09T09:04:15;8.38;;;5.15;;
13238;SDS011;6686;51.292;4.166;2023-07-09T09:07:06;8.48;;;5.40;;
13238;SDS011;6686;51.292;4.166;2023-07-09T09:09:58;6.50;;;5.45;;
13238;SDS011;6686;51.292;4.166;2023-07-09T09:12:54;9.50;;;5.80;;
13238;SDS011;6686;51.292;4.166;2023-07-09T09:15:42;8.30;;;5.70;;
13238;SDS011;6686;51.292;4.166;2023-07-09T09:18:28;9.65;;;6.45;;
13238;SDS011;6686;51.292;4.166;2023-07-09T09:24:16;9.95;;;7.18;;
13238;SDS011;6686;51.292;4.166;2023-07-09T09:27:00;7.35;;;6.47;;
13238;SDS011;6686;51.292;4.166;2023-07-09T09:29:46;8.35;;;7.37;;
13238;SDS011;6686;51.292;4.166;2023-07-09T09:32:36;9.15;;;7.00;;
13238;SDS011;6686;51.292;4.166;2023-07-09T09:35:18;7.75;;;6.95;;
13238;SDS011;6686;51.292;4.166;2023-07-09T09:38:12;8.18;;;5.87;;
13238;SDS011;6686;51.292;4.166;2023-07-09T09:41:00;6.68;;;5.80;;
13238;SDS011;6686;51.292;4.166;2023-07-09T09:43:46;5.90;;;4.37;;
13238;SDS011;6686;51.292;4.166;2023-07-09T09:46:32;6.10;;;4.80;;
13238;SDS011;6686;51.292;4.166;2023-07-09T09:49:18;6.95;;;4.50;;
13238;SDS011;6686;51.292;4.166;2023-07-09T09:52:04;6.90;;;3.60;;
13238;SDS011;6686;51.292;4.166;2023-07-09T09:54:51;4.43;;;3.70;;
13238;SDS011;6686;51.292;4.166;2023-07-09T09:57:38;5.90;;;3.40;;
13238;SDS011;6686;51.292;4.166;2023-07-09T10:00:28;5.53;;;3.30;;
13238;SDS011;6686;51.292;4.166;2023-07-09T10:03:13;4.95;;;3.33;;
13238;SDS011;6686;51.292;4.166;2023-07-09T10:06:00;4.68;;;3.30;;
13238;SDS011;6686;51.292;4.166;2023-07-09T10:17:46;5.68;;;3.08;;
13238;SDS011;6686;51.292;4.166;2023-07-09T10:20:45;4.75;;;3.70;;
13238;SDS011;6686;51.292;4.166;2023-07-09T10:23:29;3.65;;;3.08;;
13238;SDS011;6686;51.292;4.166;2023-07-09T10:26:32;4.85;;;3.40;;
13238;SDS011;6686;51.292;4.166;2023-07-09T10:29:33;4.22;;;3.40;;
13238;SDS011;6686;51.292;4.166;2023-07-09T10:32:35;4.80;;;3.58;;
13238;SDS011;6686;51.292;4.166;2023-07-09T10:35:51;7.10;;;3.30;;
13238;SDS011;6686;51.292;4.166;2023-07-09T10:38:45;4.90;;;3.40;;
13238;SDS011;6686;51.292;4.166;2023-07-09T10:41:30;4.53;;;3.08;;
13238;SDS011;6686;51.292;4.166;2023-07-09T10:44:18;4.10;;;3.47;;
13238;SDS011;6686;51.292;4.166;2023-07-09T10:47:04;8.50;;;4.50;;
13238;SDS011;6686;51.292;4.166;2023-07-09T10:49:51;5.37;;;3.60;;
13238;SDS011;6686;51.292;4.166;2023-07-09T10:52:39;6.05;;;3.17;;
13238;SDS011;6686;51.292;4.166;2023-07-09T10:55:36;4.97;;;3.33;;
13238;SDS011;6686;51.292;4.166;2023-07-09T11:01:13;7.50;;;3.37;;
13238;SDS011;6686;51.292;4.166;2023-07-09T11:04:00;6.60;;;4.10;;
13238;SDS011;6686;51.292;4.166;2023-07-09T11:06:48;8.43;;;3.92;;
13238;SDS011;6686;51.292;4.166;2023-07-09T11:09:38;7.07;;;3.40;;
13238;SDS011;6686;51.292;4.166;2023-07-09T11:15:22;6.10;;;3.75;;
13238;SDS011;6686;51.292;4.166;2023-07-09T11:18:06;8.43;;;3.95;;
13238;SDS011;6686;51.292;4.166;2023-07-09T11:21:03;5.55;;;3.47;;
13238;SDS011;6686;51.292;4.166;2023-07-09T11:23:58;6.32;;;3.70;;
13238;SDS011;6686;51.292;4.166;2023-07-09T11:26:46;5.40;;;3.75;;
13238;SDS011;6686;51.292;4.166;2023-07-09T11:29:26;6.30;;;3.78;;
13238;SDS011;6686;51.292;4.166;2023-07-09T11:32:17;7.70;;;3.95;;
13238;SDS011;6686;51.292;4.166;2023-07-09T11:35:08;10.45;;;4.53;;
13238;SDS011;6686;51.292;4.166;2023-07-09T11:37:54;6.35;;;3.42;;
13238;SDS011;6686;51.292;4.166;2023-07-09T11:40:45;8.15;;;3.70;;
13238;SDS011;6686;51.292;4.166;2023-07-09T11:43:26;9.15;;;4.07;;
13238;SDS011;6686;51.292;4.166;2023-07-09T11:46:16;9.43;;;4.07;;
13238;SDS011;6686;51.292;4.166;2023-07-09T11:49:00;9.50;;;4.12;;
13238;SDS011;6686;51.292;4.166;2023-07-09T11:51:47;6.95;;;4.15;;
13238;SDS011;6686;51.292;4.166;2023-07-09T11:54:36;9.90;;;4.22;;
13238;SDS011;6686;51.292;4.166;2023-07-09T11:57:21;9.00;;;4.12;;
13238;SDS011;6686;51.292;4.166;2023-07-09T12:00:08;7.28;;;3.53;;
13238;SDS011;6686;51.292;4.166;2023-07-09T12:02:53;9.13;;;4.10;;
13238;SDS011;6686;51.292;4.166;2023-07-09T12:05:39;8.48;;;4.05;;
13238;SDS011;6686;51.292;4.166;2023-07-09T12:08:36;8.88;;;4.37;;
13238;SDS011;6686;51.292;4.166;2023-07-09T12:14:11;7.40;;;4.25;;
13238;SDS011;6686;51.292;4.166;2023-07-09T12:16:56;8.27;;;4.37;;
13238;SDS011;6686;51.292;4.166;2023-07-09T12:19:42;6.15;;;3.90;;
13238;SDS011;6686;51.292;4.166;2023-07-09T12:22:28;7.57;;;3.92;;
13238;SDS011;6686;51.292;4.166;2023-07-09T12:25:19;5.18;;;3.78;;
13238;SDS011;6686;51.292;4.166;2023-07-09T12:28:11;8.95;;;3.95;;
13238;SDS011;6686;51.292;4.166;2023-07-09T12:30:52;8.90;;;4.15;;
13238;SDS011;6686;51.292;4.166;2023-07-09T12:33:38;4.78;;;3.75;;
13238;SDS011;6686;51.292;4.166;2023-07-09T12:36:25;6.15;;;3.72;;
13238;SDS011;6686;51.292;4.166;2023-07-09T12:39:10;8.10;;;4.00;;
13238;SDS011;6686;51.292;4.166;2023-07-09T12:41:58;6.40;;;3.83;;
13238;SDS011;6686;51.292;4.166;2023-07-09T12:44:42;8.70;;;4.10;;
13238;SDS011;6686;51.292;4.166;2023-07-09T12:47:28;6.37;;;4.10;;
13238;SDS011;6686;51.292;4.166;2023-07-09T12:50:18;7.32;;;4.18;;
13238;SDS011;6686;51.292;4.166;2023-07-09T12:53:12;4.95;;;4.07;;
13238;SDS011;6686;51.292;4.166;2023-07-09T12:55:49;6.65;;;3.83;;
13238;SDS011;6686;51.292;4.166;2023-07-09T12:58:36;6.68;;;4.35;;
13238;SDS011;6686;51.292;4.166;2023-07-09T13:01:21;5.05;;;3.60;;
13238;SDS011;6686;51.292;4.166;2023-07-09T13:04:08;7.68;;;4.68;;
13238;SDS011;6686;51.292;4.166;2023-07-09T13:06:53;8.20;;;4.60;;
13238;SDS011;6686;51.292;4.166;2023-07-09T13:09:47;23.60;;;16.85;;
13238;SDS011;6686;51.292;4.166;2023-07-09T13:12:30;18.05;;;13.73;;
13238;SDS011;6686;51.292;4.166;2023-07-09T13:18:17;14.80;;;6.93;;
13238;SDS011;6686;51.292;4.166;2023-07-09T13:21:05;8.00;;;5.25;;
13238;SDS011;6686;51.292;4.166;2023-07-09T13:23:50;10.05;;;5.20;;
13238;SDS011;6686;51.292;4.166;2023-07-09T13:26:36;6.97;;;5.20;;
13238;SDS011;6686;51.292;4.166;2023-07-09T13:29:22;26.08;;;23.25;;
13238;SDS011;6686;51.292;4.166;2023-07-09T13:32:12;11.93;;;7.00;;
13238;SDS011;6686;51.292;4.166;2023-07-09T13:34:57;9.38;;;5.40;;
13238;SDS011;6686;51.292;4.166;2023-07-09T13:37:44;10.20;;;5.80;;
13238;SDS011;6686;51.292;4.166;2023-07-09T13:40:29;10.23;;;5.70;;
13238;SDS011;6686;51.292;4.166;2023-07-09T13:43:18;11.00;;;5.62;;
13238;SDS011;6686;51.292;4.166;2023-07-09T13:46:03;8.02;;;5.10;;
13238;SDS011;6686;51.292;4.166;2023-07-09T13:48:50;8.10;;;5.05;;
13238;SDS011;6686;51.292;4.166;2023-07-09T13:51:36;11.48;;;6.30;;
13238;SDS011;6686;51.292;4.166;2023-07-09T13:54:23;9.70;;;6.53;;
13238;SDS011;6686;51.292;4.166;2023-07-09T13:57:11;9.77;;;6.47;;
13238;SDS011;6686;51.292;4.166;2023-07-09T13:59:54;9.63;;;6.37;;
13238;SDS011;6686;51.292;4.166;2023-07-09T14:02:40;10.70;;;7.70;;
13238;SDS011;6686;51.292;4.166;2023-07-09T14:05:26;11.50;;;7.37;;
13238;SDS011;6686;51.292;4.166;2023-07-09T14:08:12;10.37;;;7.27;;
13238;SDS011;6686;51.292;4.166;2023-07-09T14:10:58;13.37;;;7.87;;
13238;SDS011;6686;51.292;4.166;2023-07-09T14:13:43;11.13;;;6.67;;
13238;SDS011;6686;51.292;4.166;2023-07-09T14:16:29;11.40;;;6.80;;
13238;SDS011;6686;51.292;4.166;2023-07-09T14:19:16;14.57;;;8.10;;
13238;SDS011;6686;51.292;4.166;2023-07-09T14:22:01;11.97;;;7.30;;
13238;SDS011;6686;51.292;4.166;2023-07-09T14:24:47;12.20;;;7.43;;
13238;SDS011;6686;51.292;4.166;2023-07-09T14:27:34;13.57;;;8.17;;
13238;SDS011;6686;51.292;4.166;2023-07-09T14:30:21;15.97;;;8.57;;
13238;SDS011;6686;51.292;4.166;2023-07-09T14:33:08;13.00;;;7.37;;
13238;SDS011;6686;51.292;4.166;2023-07-09T14:35:52;12.87;;;8.03;;
13238;SDS011;6686;51.292;4.166;2023-07-09T14:38:38;12.23;;;7.80;;
13238;SDS011;6686;51.292;4.166;2023-07-09T14:41:25;10.60;;;7.90;;
13238;SDS011;6686;51.292;4.166;2023-07-09T14:44:15;11.30;;;8.00;;
13238;SDS011;6686;51.292;4.166;2023-07-09T14:46:58;9.68;;;6.75;;
13238;SDS011;6686;51.292;4.166;2023-07-09T14:49:42;24.07;;;20.73;;
13238;SDS011;6686;51.292;4.166;2023-07-09T14:52:28;13.93;;;6.27;;
13238;SDS011;6686;51.292;4.166;2023-07-09T14:55:15;9.37;;;5.50;;
13238;SDS011;6686;51.292;4.166;2023-07-09T14:58:01;8.83;;;6.13;;
13238;SDS011;6686;51.292;4.166;2023-07-09T15:00:49;9.80;;;6.70;;
13238;SDS011;6686;51.292;4.166;2023-07-09T15:03:35;10.23;;;6.23;;
13238;SDS011;6686;51.292;4.166;2023-07-09T15:06:21;7.75;;;6.43;;
13238;SDS011;6686;51.292;4.166;2023-07-09T15:09:19;8.50;;;5.30;;
13238;SDS011;6686;51.292;4.166;2023-07-09T15:11:59;6.35;;;4.28;;
13238;SDS011;6686;51.292;4.166;2023-07-09T15:14:45;7.65;;;4.43;;
13238;SDS011;6686;51.292;4.166;2023-07-09T15:17:31;7.60;;;4.70;;
13238;SDS011;6686;51.292;4.166;2023-07-09T15:20:18;7.05;;;5.60;;
13238;SDS011;6686;51.292;4.166;2023-07-09T15:23:02;10.70;;;6.17;;
13238;SDS011;6686;51.292;4.166;2023-07-09T15:25:48;7.57;;;5.53;;
13238;SDS011;6686;51.292;4.166;2023-07-09T15:28:34;8.23;;;5.50;;
13238;SDS011;6686;51.292;4.166;2023-07-09T15:31:20;7.15;;;5.07;;
13238;SDS011;6686;51.292;4.166;2023-07-09T15:34:06;8.07;;;5.68;;
13238;SDS011;6686;51.292;4.166;2023-07-09T15:36:52;7.22;;;5.28;;
13238;SDS011;6686;51.292;4.166;2023-07-09T15:39:38;6.12;;;4.60;;
13238;SDS011;6686;51.292;4.166;2023-07-09T15:42:24;8.50;;;4.50;;
13238;SDS011;6686;51.292;4.166;2023-07-09T15:45:14;6.75;;;4.28;;
13238;SDS011;6686;51.292;4.166;2023-07-09T15:47:59;6.78;;;4.60;;
13238;SDS011;6686;51.292;4.166;2023-07-09T15:50:45;5.65;;;3.85;;
13238;SDS011;6686;51.292;4.166;2023-07-09T15:53:32;5.90;;;3.47;;
13238;SDS011;6686;51.292;4.166;2023-07-09T15:56:27;6.43;;;3.45;;
13238;SDS011;6686;51.292;4.166;2023-07-09T15:59:17;3.80;;;2.47;;
13238;SDS011;6686;51.292;4.166;2023-07-09T16:01:58;3.50;;;2.33;;
13238;SDS011;6686;51.292;4.166;2023-07-09T16:04:44;4.73;;;2.30;;
13238;SDS011;6686;51.292;4.166;2023-07-09T16:07:32;2.90;;;2.03;;
13238;SDS011;6686;51.292;4.166;2023-07-09T16:10:18;4.27;;;2.57;;
13238;SDS011;6686;51.292;4.166;2023-07-09T16:13:05;3.07;;;2.20;;
13238;SDS011;6686;51.292;4.166;2023-07-09T16:15:50;5.33;;;2.80;;
13238;SDS011;6686;51.292;4.166;2023-07-09T16:18:36;6.20;;;3.20;;
13238;SDS011;6686;51.292;4.166;2023-07-09T16:21:23;7.57;;;2.90;;
13238;SDS011;6686;51.292;4.166;2023-07-09T16:24:13;5.03;;;2.70;;
13238;SDS011;6686;51.292;4.166;2023-07-09T16:27:00;4.37;;;2.35;;
13238;SDS011;6686;51.292;4.166;2023-07-09T16:29:46;4.57;;;2.40;;
13238;SDS011;6686;51.292;4.166;2023-07-09T16:32:32;5.55;;;2.85;;
13238;SDS011;6686;51.292;4.166;2023-07-09T16:35:19;6.32;;;2.60;;
13238;SDS011;6686;51.292;4.166;2023-07-09T16:38:04;4.93;;;2.40;;
13238;SDS011;6686;51.292;4.166;2023-07-09T16:40:49;6.80;;;2.67;;
13238;SDS011;6686;51.292;4.166;2023-07-09T16:43:35;4.00;;;2.33;;
13238;SDS011;6686;51.292;4.166;2023-07-09T16:46:22;4.77;;;2.13;;
13238;SDS011;6686;51.292;4.166;2023-07-09T16:52:23;5.47;;;1.70;;
13238;SDS011;6686;51.292;4.166;2023-07-09T16:54:58;3.87;;;1.77;;
13238;SDS011;6686;51.292;4.166;2023-07-09T16:57:44;3.97;;;2.00;;
13238;SDS011;6686;51.292;4.166;2023-07-09T17:00:30;3.67;;;1.80;;
13238;SDS011;6686;51.292;4.166;2023-07-09T17:03:21;3.50;;;2.00;;
13238;SDS011;6686;51.292;4.166;2023-07-09T17:06:07;4.83;;;2.90;;
13238;SDS011;6686;51.292;4.166;2023-07-09T17:08:53;5.87;;;2.80;;
13238;SDS011;6686;51.292;4.166;2023-07-09T17:11:39;3.97;;;2.60;;
13238;SDS011;6686;51.292;4.166;2023-07-09T17:14:25;6.22;;;3.08;;
13238;SDS011;6686;51.292;4.166;2023-07-09T17:17:12;5.63;;;3.00;;